Time,TemperatureF,DewpointF,PressureIn,WindDirection,WindDirectionDegrees,WindSpeedMPH,WindSpeedGustMPH,Humidity,HourlyPrecipIn,Conditions,Clouds,dailyrainin,SoftwareType,DateUTC
2013-11-26 00:00:00,28.0,26.0,-100.00,NNW,336,2.0,-999.0,92,0.00,,,-99.99,,2013-11-26 05:00:00,
2013-11-26 00:43:00,28.0,26.0,-100.00,NNW,336,2.0,-999.0,92,0.00,,,-99.99,,2013-11-26 05:43:00,
2013-11-26 00:53:00,28.0,26.0,-100.00,NNW,336,2.0,-999.0,92,0.00,,,-99.99,,2013-11-26 05:53:00,
2013-11-26 01:00:00,29.0,26.0,-100.00,NW,309,2.0,-999.0,90,0.03,,,-99.99,,2013-11-26 06:00:00,
2013-11-26 01:42:00,29.0,26.0,-100.00,NW,309,2.0,-999.0,90,0.03,,,-99.99,,2013-11-26 06:42:00,
2013-11-26 01:52:00,29.0,26.0,-100.00,NW,309,2.0,-999.0,90,0.03,,,-99.99,,2013-11-26 06:52:00,
2013-11-26 02:00:00,29.0,28.0,-100.00,NNW,346,3.0,-999.0,95,0.04,,,-99.99,,2013-11-26 07:00:00,
2013-11-26 02:42:00,29.0,28.0,-100.00,NNW,346,3.0,-999.0,95,0.04,,,-99.99,,2013-11-26 07:42:00,
2013-11-26 02:52:00,29.0,28.0,-100.00,NNW,346,3.0,-999.0,95,0.04,,,-99.99,,2013-11-26 07:52:00,
2013-11-26 03:00:00,30.0,29.0,-100.00,North,352,2.0,-999.0,96,0.01,,,-99.99,,2013-11-26 08:00:00,
2013-11-26 03:42:00,30.0,29.0,-100.00,North,352,2.0,-999.0,96,0.01,,,-99.99,,2013-11-26 08:42:00,
2013-11-26 03:52:00,30.0,29.0,-100.00,North,352,2.0,-999.0,96,0.01,,,-99.99,,2013-11-26 08:52:00,
2013-11-26 04:00:00,31.0,30.0,-100.00,North,358,1.0,-999.0,97,0.10,,,-99.99,,2013-11-26 09:00:00,
2013-11-26 04:44:00,31.0,30.0,-100.00,North,358,1.0,-999.0,97,0.10,,,-99.99,,2013-11-26 09:44:00,
2013-11-26 04:54:00,31.0,30.0,-100.00,North,358,1.0,-999.0,97,0.10,,,-99.99,,2013-11-26 09:54:00,
2013-11-26 05:00:00,32.0,31.0,-100.00,North,0,0.0,-999.0,98,0.13,,,-99.99,,2013-11-26 10:00:00,
2013-11-26 05:43:00,32.0,31.0,-100.00,North,0,0.0,-999.0,98,0.13,,,-99.99,,2013-11-26 10:43:00,
2013-11-26 05:53:00,32.0,31.0,-100.00,North,0,0.0,-999.0,98,0.13,,,-99.99,,2013-11-26 10:53:00,
2013-11-26 06:00:00,32.0,32.0,-100.00,North,0,0.0,-999.0,99,0.08,,,-99.99,,2013-11-26 11:00:00,
2013-11-26 06:42:00,32.0,32.0,-100.00,North,0,0.0,-999.0,99,0.08,,,-99.99,,2013-11-26 11:42:00,
2013-11-26 06:53:00,32.0,32.0,-100.00,North,0,0.0,-999.0,99,0.08,,,-99.99,,2013-11-26 11:53:00,
2013-11-26 07:00:00,32.0,32.0,-100.00,North,0,0.0,-999.0,99,0.13,,,-99.99,,2013-11-26 12:00:00,
2013-11-26 07:42:00,32.0,32.0,-100.00,North,0,0.0,-999.0,99,0.13,,,-99.99,,2013-11-26 12:42:00,
2013-11-26 07:52:00,32.0,32.0,-100.00,North,0,0.0,-999.0,99,0.13,,,-99.99,,2013-11-26 12:52:00,
2013-11-26 08:00:00,32.0,32.0,-100.00,WNW,291,1.0,-999.0,99,0.19,,,-99.99,,2013-11-26 13:00:00,
2013-11-26 08:42:00,32.0,32.0,-100.00,WNW,291,1.0,-999.0,99,0.19,,,-99.99,,2013-11-26 13:42:00,
2013-11-26 08:52:00,32.0,32.0,-100.00,WNW,291,1.0,-999.0,99,0.19,,,-99.99,,2013-11-26 13:52:00,
2013-11-26 09:00:00,32.0,32.0,-100.00,North,0,0.0,-999.0,99,0.18,,,-99.99,,2013-11-26 14:00:00,
2013-11-26 09:42:00,32.0,32.0,-100.00,North,0,0.0,-999.0,99,0.18,,,-99.99,,2013-11-26 14:42:00,
2013-11-26 09:52:00,32.0,32.0,-100.00,North,0,0.0,-999.0,99,0.18,,,-99.99,,2013-11-26 14:52:00,
2013-11-26 10:00:00,32.0,32.0,-100.00,SSE,147,2.0,-999.0,99,0.18,,,-99.99,,2013-11-26 15:00:00,
2013-11-26 10:44:00,32.0,32.0,-100.00,SSE,147,2.0,-999.0,99,0.18,,,-99.99,,2013-11-26 15:44:00,
2013-11-26 10:55:00,32.0,32.0,-100.00,SSE,147,2.0,-999.0,99,0.18,,,-99.99,,2013-11-26 15:55:00,
2013-11-26 11:00:00,32.0,32.0,-100.00,North,0,0.0,-999.0,99,0.22,,,-99.99,,2013-11-26 16:00:00,
2013-11-26 11:43:00,32.0,32.0,-100.00,North,0,0.0,-999.0,99,0.22,,,-99.99,,2013-11-26 16:43:00,
2013-11-26 11:54:00,32.0,32.0,-100.00,North,0,0.0,-999.0,99,0.22,,,-99.99,,2013-11-26 16:54:00,
2013-11-26 12:00:00,32.0,32.0,-100.00,North,0,0.0,-999.0,99,0.26,,,-99.99,,2013-11-26 17:00:00,
2013-11-26 12:43:00,32.0,32.0,-100.00,North,0,0.0,-999.0,99,0.26,,,-99.99,,2013-11-26 17:43:00,
2013-11-26 12:53:00,32.0,32.0,-100.00,North,0,0.0,-999.0,99,0.26,,,-99.99,,2013-11-26 17:53:00,
2013-11-26 13:00:00,33.0,33.0,-100.00,North,0,0.0,-999.0,99,0.21,,,-99.99,,2013-11-26 18:00:00,
2013-11-26 13:42:00,33.0,33.0,-100.00,North,0,0.0,-999.0,99,0.21,,,-99.99,,2013-11-26 18:42:00,
2013-11-26 13:53:00,33.0,33.0,-100.00,North,0,0.0,-999.0,99,0.21,,,-99.99,,2013-11-26 18:53:00,
2013-11-26 14:00:00,33.0,33.0,-100.00,WNW,294,2.0,-999.0,99,0.21,,,-99.99,,2013-11-26 19:00:00,
2013-11-26 14:42:00,33.0,33.0,-100.00,WNW,294,2.0,-999.0,99,0.21,,,-99.99,,2013-11-26 19:42:00,
2013-11-26 14:52:00,33.0,33.0,-100.00,WNW,294,2.0,-999.0,99,0.21,,,-99.99,,2013-11-26 19:52:00,
2013-11-26 15:00:00,33.0,33.0,-100.00,ENE,72,1.0,-999.0,99,0.19,,,-99.99,,2013-11-26 20:00:00,
2013-11-26 15:42:00,33.0,33.0,-100.00,ENE,72,1.0,-999.0,99,0.19,,,-99.99,,2013-11-26 20:42:00,
2013-11-26 15:53:00,33.0,33.0,-100.00,ENE,72,1.0,-999.0,99,0.19,,,-99.99,,2013-11-26 20:53:00,
2013-11-26 16:00:00,34.0,34.0,-100.00,SE,145,1.0,-999.0,99,0.22,,,-99.99,,2013-11-26 21:00:00,
2013-11-26 16:44:00,34.0,34.0,-100.00,SE,145,1.0,-999.0,99,0.22,,,-99.99,,2013-11-26 21:44:00,
2013-11-26 16:53:00,34.0,34.0,-100.00,SE,145,1.0,-999.0,99,0.22,,,-99.99,,2013-11-26 21:53:00,
2013-11-26 17:00:00,34.0,34.0,-100.00,ENE,73,2.0,-999.0,99,0.15,,,-99.99,,2013-11-26 22:00:00,
2013-11-26 17:43:00,34.0,34.0,-100.00,ENE,73,2.0,-999.0,99,0.15,,,-99.99,,2013-11-26 22:43:00,
2013-11-26 17:53:00,34.0,34.0,-100.00,ENE,73,2.0,-999.0,99,0.15,,,-99.99,,2013-11-26 22:53:00,
2013-11-26 18:00:00,35.0,35.0,-100.00,North,0,0.0,-999.0,99,0.08,,,-99.99,,2013-11-26 23:00:00,
2013-11-26 18:43:00,35.0,35.0,-100.00,North,0,0.0,-999.0,99,0.08,,,-99.99,,2013-11-26 23:43:00,
2013-11-26 18:53:00,35.0,35.0,-100.00,North,0,0.0,-999.0,99,0.08,,,-99.99,,2013-11-26 23:53:00,
2013-11-26 19:00:00,36.0,36.0,-100.00,East,99,0.0,-999.0,99,0.01,,,-99.99,,2013-11-27 00:00:00,
2013-11-26 19:22:00,36.0,36.0,-100.00,East,99,0.0,-999.0,99,0.01,,,-99.99,,2013-11-27 00:22:00,
2013-11-26 19:32:00,36.0,36.0,-100.00,East,99,0.0,-999.0,99,0.01,,,-99.99,,2013-11-27 00:32:00,
2013-11-26 19:42:00,36.0,36.0,-100.00,East,99,0.0,-999.0,99,0.01,,,-99.99,,2013-11-27 00:42:00,
2013-11-26 19:52:00,36.0,36.0,-100.00,East,99,0.0,-999.0,99,0.01,,,-99.99,,2013-11-27 00:52:00,
2013-11-26 20:00:00,37.0,37.0,-100.00,North,0,0.0,-999.0,99,0.00,,,-99.99,,2013-11-27 01:00:00,
2013-11-26 20:42:00,37.0,37.0,-100.00,North,0,0.0,-999.0,99,0.00,,,-99.99,,2013-11-27 01:42:00,
2013-11-26 20:52:00,37.0,37.0,-100.00,North,0,0.0,-999.0,99,0.00,,,-99.99,,2013-11-27 01:52:00,
2013-11-26 21:00:00,37.0,37.0,-100.00,WNW,300,2.0,-999.0,99,0.05,,,-99.99,,2013-11-27 02:00:00,
2013-11-26 21:42:00,37.0,37.0,-100.00,WNW,300,2.0,-999.0,99,0.05,,,-99.99,,2013-11-27 02:42:00,
2013-11-26 21:52:00,37.0,37.0,-100.00,WNW,300,2.0,-999.0,99,0.05,,,-99.99,,2013-11-27 02:52:00,
2013-11-26 22:00:00,37.0,37.0,-100.00,WSW,256,0.0,-999.0,99,0.05,,,-99.99,,2013-11-27 03:00:00,
2013-11-26 22:44:00,37.0,37.0,-100.00,WSW,256,0.0,-999.0,99,0.05,,,-99.99,,2013-11-27 03:44:00,
2013-11-26 22:54:00,37.0,37.0,-100.00,WSW,256,0.0,-999.0,99,0.05,,,-99.99,,2013-11-27 03:54:00,
2013-11-26 23:00:00,38.0,38.0,-100.00,SSW,195,4.0,-999.0,99,0.01,,,-99.99,,2013-11-27 04:00:00,
2013-11-26 23:43:00,38.0,38.0,-100.00,SSW,195,4.0,-999.0,99,0.01,,,-99.99,,2013-11-27 04:43:00,
2013-11-26 23:53:00,38.0,38.0,-100.00,SSW,195,4.0,-999.0,99,0.01,,,-99.99,,2013-11-27 04:53:00,